sensor_id;sensor_type;location;lat;lon;timestamp;P1;durP1;ratioP1;P2;durP2;ratioP2
41711;SDS011;27399;51.516;13.670;2023-06-10T00:00:38;7.80;;;4.22;;
41711;SDS011;27399;51.516;13.670;2023-06-10T00:03:06;8.77;;;4.60;;
41711;SDS011;27399;51.516;13.670;2023-06-10T00:05:32;9.45;;;4.88;;
41711;SDS011;27399;51.516;13.670;2023-06-10T00:08:00;9.20;;;5.15;;
41711;SDS011;27399;51.516;13.670;2023-06-10T00:10:32;10.45;;;4.80;;
41711;SDS011;27399;51.516;13.670;2023-06-10T00:13:04;10.23;;;4.45;;
41711;SDS011;27399;51.516;13.670;2023-06-10T00:15:33;7.82;;;4.35;;
41711;SDS011;27399;51.516;13.670;2023-06-10T00:18:00;11.88;;;5.43;;
41711;SDS011;27399;51.516;13.670;2023-06-10T00:20:27;13.10;;;4.43;;
41711;SDS011;27399;51.516;13.670;2023-06-10T00:22:53;10.73;;;4.97;;
41711;SDS011;27399;51.516;13.670;2023-06-10T00:25:19;8.07;;;4.50;;
41711;SDS011;27399;51.516;13.670;2023-06-10T00:27:44;10.35;;;4.78;;
41711;SDS011;27399;51.516;13.670;2023-06-10T00:30:10;12.40;;;4.70;;
41711;SDS011;27399;51.516;13.670;2023-06-10T00:32:37;10.02;;;4.43;;
41711;SDS011;27399;51.516;13.670;2023-06-10T00:35:03;9.77;;;4.30;;
41711;SDS011;27399;51.516;13.670;2023-06-10T00:37:29;11.20;;;4.68;;
41711;SDS011;27399;51.516;13.670;2023-06-10T00:39:55;6.45;;;4.30;;
41711;SDS011;27399;51.516;13.670;2023-06-10T00:42:21;12.32;;;4.93;;
41711;SDS011;27399;51.516;13.670;2023-06-10T00:44:49;7.82;;;4.82;;
41711;SDS011;27399;51.516;13.670;2023-06-10T00:47:15;12.63;;;4.70;;
41711;SDS011;27399;51.516;13.670;2023-06-10T00:49:41;8.93;;;4.53;;
41711;SDS011;27399;51.516;13.670;2023-06-10T00:52:08;12.07;;;4.68;;
41711;SDS011;27399;51.516;13.670;2023-06-10T00:54:35;12.48;;;4.68;;
41711;SDS011;27399;51.516;13.670;2023-06-10T00:57:05;9.13;;;4.40;;
41711;SDS011;27399;51.516;13.670;2023-06-10T00:59:31;13.60;;;5.38;;
41711;SDS011;27399;51.516;13.670;2023-06-10T01:01:57;8.05;;;4.38;;
41711;SDS011;27399;51.516;13.670;2023-06-10T01:04:23;9.38;;;4.28;;
41711;SDS011;27399;51.516;13.670;2023-06-10T01:06:57;8.70;;;4.63;;
41711;SDS011;27399;51.516;13.670;2023-06-10T01:09:45;10.77;;;4.40;;
41711;SDS011;27399;51.516;13.670;2023-06-10T01:12:37;8.75;;;4.32;;
41711;SDS011;27399;51.516;13.670;2023-06-10T01:15:13;9.05;;;4.47;;
41711;SDS011;27399;51.516;13.670;2023-06-10T01:17:56;9.80;;;4.75;;
41711;SDS011;27399;51.516;13.670;2023-06-10T01:20:23;19.30;;;5.10;;
41711;SDS011;27399;51.516;13.670;2023-06-10T01:22:52;10.57;;;4.30;;
41711;SDS011;27399;51.516;13.670;2023-06-10T01:25:23;11.93;;;4.65;;
41711;SDS011;27399;51.516;13.670;2023-06-10T01:27:58;8.77;;;4.27;;
41711;SDS011;27399;51.516;13.670;2023-06-10T01:30:30;8.68;;;4.13;;
41711;SDS011;27399;51.516;13.670;2023-06-10T01:33:03;12.32;;;4.82;;
41711;SDS011;27399;51.516;13.670;2023-06-10T01:35:31;9.23;;;4.57;;
41711;SDS011;27399;51.516;13.670;2023-06-10T01:37:57;11.25;;;4.80;;
41711;SDS011;27399;51.516;13.670;2023-06-10T01:40:25;10.32;;;4.63;;
41711;SDS011;27399;51.516;13.670;2023-06-10T01:42:51;9.32;;;4.20;;
41711;SDS011;27399;51.516;13.670;2023-06-10T01:45:17;7.13;;;4.13;;
41711;SDS011;27399;51.516;13.670;2023-06-10T01:47:43;13.13;;;4.53;;
41711;SDS011;27399;51.516;13.670;2023-06-10T01:50:09;9.57;;;4.15;;
41711;SDS011;27399;51.516;13.670;2023-06-10T01:52:35;15.38;;;5.65;;
41711;SDS011;27399;51.516;13.670;2023-06-10T01:55:00;12.05;;;4.68;;
41711;SDS011;27399;51.516;13.670;2023-06-10T01:57:26;9.60;;;4.63;;
41711;SDS011;27399;51.516;13.670;2023-06-10T01:59:51;8.50;;;4.95;;
41711;SDS011;27399;51.516;13.670;2023-06-10T02:02:17;9.35;;;4.20;;
41711;SDS011;27399;51.516;13.670;2023-06-10T02:04:42;10.88;;;4.70;;
41711;SDS011;27399;51.516;13.670;2023-06-10T02:07:08;13.02;;;4.95;;
41711;SDS011;27399;51.516;13.670;2023-06-10T02:09:34;9.65;;;4.57;;
41711;SDS011;27399;51.516;13.670;2023-06-10T02:12:02;8.52;;;4.25;;
41711;SDS011;27399;51.516;13.670;2023-06-10T02:14:29;11.68;;;5.68;;
41711;SDS011;27399;51.516;13.670;2023-06-10T02:16:54;10.52;;;4.50;;
41711;SDS011;27399;51.516;13.670;2023-06-10T02:19:22;9.32;;;4.88;;
41711;SDS011;27399;51.516;13.670;2023-06-10T02:21:48;11.52;;;4.57;;
41711;SDS011;27399;51.516;13.670;2023-06-10T02:24:14;13.38;;;5.43;;
41711;SDS011;27399;51.516;13.670;2023-06-10T02:26:40;10.80;;;4.88;;
41711;SDS011;27399;51.516;13.670;2023-06-10T02:29:06;21.33;;;5.28;;
41711;SDS011;27399;51.516;13.670;2023-06-10T02:31:32;10.02;;;4.93;;
41711;SDS011;27399;51.516;13.670;2023-06-10T02:34:00;9.98;;;5.00;;
41711;SDS011;27399;51.516;13.670;2023-06-10T02:36:27;10.55;;;5.05;;
41711;SDS011;27399;51.516;13.670;2023-06-10T02:38:52;8.40;;;4.97;;
41711;SDS011;27399;51.516;13.670;2023-06-10T02:41:18;13.38;;;5.13;;
41711;SDS011;27399;51.516;13.670;2023-06-10T02:43:44;16.08;;;4.90;;
41711;SDS011;27399;51.516;13.670;2023-06-10T02:46:10;16.10;;;5.25;;
41711;SDS011;27399;51.516;13.670;2023-06-10T02:48:45;11.05;;;4.90;;
41711;SDS011;27399;51.516;13.670;2023-06-10T02:51:10;11.52;;;4.00;;
41711;SDS011;27399;51.516;13.670;2023-06-10T02:53:36;11.75;;;4.80;;
41711;SDS011;27399;51.516;13.670;2023-06-10T02:56:02;12.75;;;6.00;;
41711;SDS011;27399;51.516;13.670;2023-06-10T02:58:28;13.30;;;4.90;;
41711;SDS011;27399;51.516;13.670;2023-06-10T03:00:54;14.50;;;5.57;;
41711;SDS011;27399;51.516;13.670;2023-06-10T03:03:20;12.70;;;5.95;;
41711;SDS011;27399;51.516;13.670;2023-06-10T03:05:47;11.50;;;5.40;;
41711;SDS011;27399;51.516;13.670;2023-06-10T03:08:13;13.25;;;5.88;;
41711;SDS011;27399;51.516;13.670;2023-06-10T03:10:39;13.65;;;5.50;;
41711;SDS011;27399;51.516;13.670;2023-06-10T03:13:04;11.20;;;4.90;;
41711;SDS011;27399;51.516;13.670;2023-06-10T03:15:30;10.30;;;5.20;;
41711;SDS011;27399;51.516;13.670;2023-06-10T03:17:58;12.25;;;5.03;;
41711;SDS011;27399;51.516;13.670;2023-06-10T03:20:27;9.68;;;4.95;;
41711;SDS011;27399;51.516;13.670;2023-06-10T03:22:53;9.20;;;5.80;;
41711;SDS011;27399;51.516;13.670;2023-06-10T03:25:19;11.18;;;6.00;;
41711;SDS011;27399;51.516;13.670;2023-06-10T03:27:46;16.10;;;5.25;;
41711;SDS011;27399;51.516;13.670;2023-06-10T03:30:12;13.98;;;5.72;;
41711;SDS011;27399;51.516;13.670;2023-06-10T03:32:38;17.55;;;5.43;;
41711;SDS011;27399;51.516;13.670;2023-06-10T03:35:04;12.95;;;5.65;;
41711;SDS011;27399;51.516;13.670;2023-06-10T03:37:30;14.02;;;5.28;;
41711;SDS011;27399;51.516;13.670;2023-06-10T03:39:56;15.63;;;5.60;;
41711;SDS011;27399;51.516;13.670;2023-06-10T03:42:21;12.82;;;5.53;;
41711;SDS011;27399;51.516;13.670;2023-06-10T03:44:47;22.30;;;6.40;;
41711;SDS011;27399;51.516;13.670;2023-06-10T03:47:12;12.45;;;6.35;;
41711;SDS011;27399;51.516;13.670;2023-06-10T03:49:38;15.75;;;6.10;;
41711;SDS011;27399;51.516;13.670;2023-06-10T03:52:05;14.93;;;6.55;;
41711;SDS011;27399;51.516;13.670;2023-06-10T03:54:31;11.68;;;5.78;;
41711;SDS011;27399;51.516;13.670;2023-06-10T03:56:59;10.20;;;5.50;;
41711;SDS011;27399;51.516;13.670;2023-06-10T03:59:25;14.40;;;6.00;;
41711;SDS011;27399;51.516;13.670;2023-06-10T04:01:50;13.63;;;6.22;;
41711;SDS011;27399;51.516;13.670;2023-06-10T04:04:16;10.13;;;5.43;;
41711;SDS011;27399;51.516;13.670;2023-06-10T04:06:42;12.63;;;6.43;;
41711;SDS011;27399;51.516;13.670;2023-06-10T04:09:09;16.08;;;6.18;;
41711;SDS011;27399;51.516;13.670;2023-06-10T04:11:35;11.20;;;5.65;;
41711;SDS011;27399;51.516;13.670;2023-06-10T04:14:01;9.35;;;5.57;;
41711;SDS011;27399;51.516;13.670;2023-06-10T04:16:27;17.83;;;6.80;;
41711;SDS011;27399;51.516;13.670;2023-06-10T04:18:52;11.80;;;6.78;;
41711;SDS011;27399;51.516;13.670;2023-06-10T04:21:18;12.77;;;6.47;;
41711;SDS011;27399;51.516;13.670;2023-06-10T04:23:44;16.33;;;7.85;;
41711;SDS011;27399;51.516;13.670;2023-06-10T04:26:10;18.42;;;6.78;;
41711;SDS011;27399;51.516;13.670;2023-06-10T04:28:37;12.77;;;6.38;;
41711;SDS011;27399;51.516;13.670;2023-06-10T04:31:03;14.55;;;6.50;;
41711;SDS011;27399;51.516;13.670;2023-06-10T04:33:29;14.93;;;6.93;;
41711;SDS011;27399;51.516;13.670;2023-06-10T04:35:55;12.85;;;7.20;;
41711;SDS011;27399;51.516;13.670;2023-06-10T04:38:21;12.13;;;6.40;;
41711;SDS011;27399;51.516;13.670;2023-06-10T04:40:47;15.10;;;7.13;;
41711;SDS011;27399;51.516;13.670;2023-06-10T04:43:13;12.30;;;7.35;;
41711;SDS011;27399;51.516;13.670;2023-06-10T04:45:38;19.85;;;7.75;;
41711;SDS011;27399;51.516;13.670;2023-06-10T04:48:04;13.27;;;6.32;;
41711;SDS011;27399;51.516;13.670;2023-06-10T04:50:30;14.48;;;7.13;;
41711;SDS011;27399;51.516;13.670;2023-06-10T04:52:58;17.08;;;6.93;;
41711;SDS011;27399;51.516;13.670;2023-06-10T04:55:23;14.52;;;6.72;;
41711;SDS011;27399;51.516;13.670;2023-06-10T04:57:50;12.45;;;6.78;;
41711;SDS011;27399;51.516;13.670;2023-06-10T05:00:16;17.40;;;7.20;;
41711;SDS011;27399;51.516;13.670;2023-06-10T05:02:42;17.23;;;7.22;;
41711;SDS011;27399;51.516;13.670;2023-06-10T05:05:07;19.77;;;7.22;;
41711;SDS011;27399;51.516;13.670;2023-06-10T05:07:33;16.60;;;7.60;;
41711;SDS011;27399;51.516;13.670;2023-06-10T05:09:59;14.95;;;7.57;;
41711;SDS011;27399;51.516;13.670;2023-06-10T05:12:25;15.32;;;6.90;;
41711;SDS011;27399;51.516;13.670;2023-06-10T05:14:54;15.43;;;7.00;;
41711;SDS011;27399;51.516;13.670;2023-06-10T05:17:20;14.05;;;7.63;;
41711;SDS011;27399;51.516;13.670;2023-06-10T05:19:45;10.98;;;7.38;;
41711;SDS011;27399;51.516;13.670;2023-06-10T05:22:12;16.85;;;7.88;;
41711;SDS011;27399;51.516;13.670;2023-06-10T05:24:38;17.58;;;7.15;;
41711;SDS011;27399;51.516;13.670;2023-06-10T05:27:04;16.25;;;8.18;;
41711;SDS011;27399;51.516;13.670;2023-06-10T05:29:31;12.68;;;7.07;;
41711;SDS011;27399;51.516;13.670;2023-06-10T05:31:58;13.32;;;6.78;;
41711;SDS011;27399;51.516;13.670;2023-06-10T05:34:28;15.83;;;6.87;;
41711;SDS011;27399;51.516;13.670;2023-06-10T05:36:56;16.67;;;7.63;;
41711;SDS011;27399;51.516;13.670;2023-06-10T05:39:22;14.02;;;6.97;;
41711;SDS011;27399;51.516;13.670;2023-06-10T05:41:48;12.82;;;7.05;;
41711;SDS011;27399;51.516;13.670;2023-06-10T05:44:14;11.75;;;7.45;;
41711;SDS011;27399;51.516;13.670;2023-06-10T05:46:39;12.82;;;7.57;;
41711;SDS011;27399;51.516;13.670;2023-06-10T05:49:05;26.40;;;7.03;;
41711;SDS011;27399;51.516;13.670;2023-06-10T05:51:31;14.82;;;7.50;;
41711;SDS011;27399;51.516;13.670;2023-06-10T05:53:57;14.68;;;8.15;;
41711;SDS011;27399;51.516;13.670;2023-06-10T05:56:23;17.50;;;8.00;;
41711;SDS011;27399;51.516;13.670;2023-06-10T05:58:50;18.15;;;7.35;;
41711;SDS011;27399;51.516;13.670;2023-06-10T06:01:16;24.13;;;7.28;;
41711;SDS011;27399;51.516;13.670;2023-06-10T06:03:42;15.82;;;7.90;;
41711;SDS011;27399;51.516;13.670;2023-06-10T06:06:07;12.70;;;7.15;;
41711;SDS011;27399;51.516;13.670;2023-06-10T06:08:33;13.52;;;7.78;;
41711;SDS011;27399;51.516;13.670;2023-06-10T06:10:59;13.75;;;8.23;;
41711;SDS011;27399;51.516;13.670;2023-06-10T06:13:24;15.27;;;8.57;;
41711;SDS011;27399;51.516;13.670;2023-06-10T06:15:50;10.50;;;6.72;;
41711;SDS011;27399;51.516;13.670;2023-06-10T06:18:16;16.30;;;8.68;;
41711;SDS011;27399;51.516;13.670;2023-06-10T06:20:41;13.73;;;7.28;;
41711;SDS011;27399;51.516;13.670;2023-06-10T06:23:07;14.07;;;7.57;;
41711;SDS011;27399;51.516;13.670;2023-06-10T06:25:35;13.05;;;7.60;;
41711;SDS011;27399;51.516;13.670;2023-06-10T06:28:02;14.05;;;7.72;;
41711;SDS011;27399;51.516;13.670;2023-06-10T06:30:28;16.55;;;7.43;;
41711;SDS011;27399;51.516;13.670;2023-06-10T06:32:53;13.93;;;6.88;;
41711;SDS011;27399;51.516;13.670;2023-06-10T06:35:19;15.00;;;7.65;;
41711;SDS011;27399;51.516;13.670;2023-06-10T06:37:44;18.38;;;7.70;;
41711;SDS011;27399;51.516;13.670;2023-06-10T06:40:10;11.23;;;7.43;;
41711;SDS011;27399;51.516;13.670;2023-06-10T06:42:36;13.80;;;7.15;;
41711;SDS011;27399;51.516;13.670;2023-06-10T06:45:02;16.08;;;7.38;;
41711;SDS011;27399;51.516;13.670;2023-06-10T06:47:27;11.02;;;6.78;;
41711;SDS011;27399;51.516;13.670;2023-06-10T06:49:53;10.48;;;7.15;;
41711;SDS011;27399;51.516;13.670;2023-06-10T06:52:18;11.90;;;7.30;;
41711;SDS011;27399;51.516;13.670;2023-06-10T06:54:44;14.18;;;7.40;;
41711;SDS011;27399;51.516;13.670;2023-06-10T06:57:10;12.57;;;7.32;;
41711;SDS011;27399;51.516;13.670;2023-06-10T06:59:36;10.45;;;6.55;;
41711;SDS011;27399;51.516;13.670;2023-06-10T07:02:02;10.15;;;6.93;;
41711;SDS011;27399;51.516;13.670;2023-06-10T07:04:28;14.07;;;7.35;;
41711;SDS011;27399;51.516;13.670;2023-06-10T07:06:55;10.20;;;7.25;;
41711;SDS011;27399;51.516;13.670;2023-06-10T07:09:20;12.68;;;7.00;;
41711;SDS011;27399;51.516;13.670;2023-06-10T07:11:46;12.23;;;7.00;;
41711;SDS011;27399;51.516;13.670;2023-06-10T07:14:11;10.02;;;6.55;;
41711;SDS011;27399;51.516;13.670;2023-06-10T07:16:37;11.18;;;6.60;;
41711;SDS011;27399;51.516;13.670;2023-06-10T07:19:03;11.95;;;6.72;;
41711;SDS011;27399;51.516;13.670;2023-06-10T07:21:29;11.60;;;6.00;;
41711;SDS011;27399;51.516;13.670;2023-06-10T07:23:55;11.70;;;6.15;;
41711;SDS011;27399;51.516;13.670;2023-06-10T07:26:24;7.43;;;5.85;;
41711;SDS011;27399;51.516;13.670;2023-06-10T07:28:50;12.95;;;5.90;;
41711;SDS011;27399;51.516;13.670;2023-06-10T07:31:16;8.25;;;5.70;;
41711;SDS011;27399;51.516;13.670;2023-06-10T07:36:45;11.32;;;5.95;;
41711;SDS011;27399;51.516;13.670;2023-06-10T07:39:10;8.73;;;5.75;;
41711;SDS011;27399;51.516;13.670;2023-06-10T07:41:36;12.27;;;6.15;;
41711;SDS011;27399;51.516;13.670;2023-06-10T07:44:02;12.00;;;5.70;;
41711;SDS011;27399;51.516;13.670;2023-06-10T07:46:28;9.93;;;5.75;;
41711;SDS011;27399;51.516;13.670;2023-06-10T07:48:54;9.60;;;6.00;;
41711;SDS011;27399;51.516;13.670;2023-06-10T07:51:20;10.65;;;6.00;;
41711;SDS011;27399;51.516;13.670;2023-06-10T07:53:46;11.20;;;6.40;;
41711;SDS011;27399;51.516;13.670;2023-06-10T07:56:12;10.88;;;5.93;;
41711;SDS011;27399;51.516;13.670;2023-06-10T07:58:38;10.98;;;5.93;;
41711;SDS011;27399;51.516;13.670;2023-06-10T08:01:04;9.75;;;5.75;;
41711;SDS011;27399;51.516;13.670;2023-06-10T08:03:30;7.82;;;5.88;;
41711;SDS011;27399;51.516;13.670;2023-06-10T08:05:55;9.13;;;6.05;;
41711;SDS011;27399;51.516;13.670;2023-06-10T08:08:21;9.68;;;5.45;;
41711;SDS011;27399;51.516;13.670;2023-06-10T08:10:47;15.63;;;6.38;;
41711;SDS011;27399;51.516;13.670;2023-06-10T08:13:14;7.10;;;5.70;;
41711;SDS011;27399;51.516;13.670;2023-06-10T08:15:46;9.55;;;5.90;;
41711;SDS011;27399;51.516;13.670;2023-06-10T08:18:13;11.98;;;6.05;;
41711;SDS011;27399;51.516;13.670;2023-06-10T08:20:38;10.75;;;5.90;;
41711;SDS011;27399;51.516;13.670;2023-06-10T08:23:04;12.38;;;5.80;;
41711;SDS011;27399;51.516;13.670;2023-06-10T08:25:30;8.63;;;5.15;;
41711;SDS011;27399;51.516;13.670;2023-06-10T08:27:55;7.57;;;6.05;;
41711;SDS011;27399;51.516;13.670;2023-06-10T08:30:22;11.07;;;5.80;;
41711;SDS011;27399;51.516;13.670;2023-06-10T08:32:48;9.07;;;5.63;;
41711;SDS011;27399;51.516;13.670;2023-06-10T08:35:13;6.30;;;4.88;;
41711;SDS011;27399;51.516;13.670;2023-06-10T08:37:39;7.53;;;4.95;;
41711;SDS011;27399;51.516;13.670;2023-06-10T08:40:05;7.95;;;5.25;;
41711;SDS011;27399;51.516;13.670;2023-06-10T08:42:43;6.30;;;5.18;;
41711;SDS011;27399;51.516;13.670;2023-06-10T08:45:17;12.10;;;5.22;;
41711;SDS011;27399;51.516;13.670;2023-06-10T08:47:47;13.10;;;4.80;;
41711;SDS011;27399;51.516;13.670;2023-06-10T08:50:18;9.13;;;4.85;;
41711;SDS011;27399;51.516;13.670;2023-06-10T08:52:44;9.45;;;4.85;;
41711;SDS011;27399;51.516;13.670;2023-06-10T08:55:18;12.05;;;4.78;;
41711;SDS011;27399;51.516;13.670;2023-06-10T08:57:47;11.55;;;4.95;;
41711;SDS011;27399;51.516;13.670;2023-06-10T09:00:15;8.60;;;4.90;;
41711;SDS011;27399;51.516;13.670;2023-06-10T09:02:42;7.88;;;5.30;;
41711;SDS011;27399;51.516;13.670;2023-06-10T09:05:08;6.22;;;4.47;;
41711;SDS011;27399;51.516;13.670;2023-06-10T09:07:35;9.15;;;4.60;;
41711;SDS011;27399;51.516;13.670;2023-06-10T09:10:02;10.27;;;4.60;;
41711;SDS011;27399;51.516;13.670;2023-06-10T09:12:30;9.10;;;4.78;;
41711;SDS011;27399;51.516;13.670;2023-06-10T09:14:55;7.20;;;3.97;;
41711;SDS011;27399;51.516;13.670;2023-06-10T09:17:21;7.28;;;4.68;;
41711;SDS011;27399;51.516;13.670;2023-06-10T09:19:47;7.65;;;4.70;;
41711;SDS011;27399;51.516;13.670;2023-06-10T09:22:14;9.45;;;4.32;;
41711;SDS011;27399;51.516;13.670;2023-06-10T09:24:39;23.92;;;5.45;;
41711;SDS011;27399;51.516;13.670;2023-06-10T09:27:07;7.32;;;4.63;;
41711;SDS011;27399;51.516;13.670;2023-06-10T09:29:46;17.20;;;4.95;;
41711;SDS011;27399;51.516;13.670;2023-06-10T09:32:15;7.57;;;4.57;;
41711;SDS011;27399;51.516;13.670;2023-06-10T09:34:43;7.65;;;4.97;;
41711;SDS011;27399;51.516;13.670;2023-06-10T09:37:09;5.97;;;4.00;;
41711;SDS011;27399;51.516;13.670;2023-06-10T09:39:37;7.70;;;4.88;;
41711;SDS011;27399;51.516;13.670;2023-06-10T09:42:24;6.65;;;4.25;;
41711;SDS011;27399;51.516;13.670;2023-06-10T09:44:52;8.30;;;5.03;;
41711;SDS011;27399;51.516;13.670;2023-06-10T09:47:21;9.00;;;4.72;;
41711;SDS011;27399;51.516;13.670;2023-06-10T09:49:50;5.95;;;4.68;;
41711;SDS011;27399;51.516;13.670;2023-06-10T09:52:25;6.38;;;3.97;;
41711;SDS011;27399;51.516;13.670;2023-06-10T09:54:53;7.68;;;5.00;;
41711;SDS011;27399;51.516;13.670;2023-06-10T09:57:24;5.55;;;4.70;;
41711;SDS011;27399;51.516;13.670;2023-06-10T09:59:53;9.90;;;4.32;;
41711;SDS011;27399;51.516;13.670;2023-06-10T10:02:21;11.48;;;5.03;;
41711;SDS011;27399;51.516;13.670;2023-06-10T10:04:47;7.13;;;4.80;;
41711;SDS011;27399;51.516;13.670;2023-06-10T10:07:12;8.63;;;4.53;;
41711;SDS011;27399;51.516;13.670;2023-06-10T10:09:38;8.32;;;4.80;;
41711;SDS011;27399;51.516;13.670;2023-06-10T10:12:15;7.25;;;4.97;;
41711;SDS011;27399;51.516;13.670;2023-06-10T10:14:47;10.15;;;4.45;;
41711;SDS011;27399;51.516;13.670;2023-06-10T10:17:14;7.25;;;4.90;;
41711;SDS011;27399;51.516;13.670;2023-06-10T10:19:46;10.40;;;6.05;;
41711;SDS011;27399;51.516;13.670;2023-06-10T10:22:36;8.93;;;5.15;;
41711;SDS011;27399;51.516;13.670;2023-06-10T10:25:16;7.90;;;3.85;;
41711;SDS011;27399;51.516;13.670;2023-06-10T10:28:06;5.78;;;4.65;;
41711;SDS011;27399;51.516;13.670;2023-06-10T10:30:37;7.20;;;5.22;;
41711;SDS011;27399;51.516;13.670;2023-06-10T10:36:22;9.98;;;5.75;;
41711;SDS011;27399;51.516;13.670;2023-06-10T10:38:48;13.70;;;4.72;;
41711;SDS011;27399;51.516;13.670;2023-06-10T10:41:14;7.13;;;4.85;;
41711;SDS011;27399;51.516;13.670;2023-06-10T10:43:42;6.40;;;4.63;;
41711;SDS011;27399;51.516;13.670;2023-06-10T10:46:13;8.40;;;5.13;;
41711;SDS011;27399;51.516;13.670;2023-06-10T10:48:40;14.07;;;5.82;;
41711;SDS011;27399;51.516;13.670;2023-06-10T10:51:09;9.20;;;4.90;;
41711;SDS011;27399;51.516;13.670;2023-06-10T10:53:39;8.15;;;4.93;;
41711;SDS011;27399;51.516;13.670;2023-06-10T10:58:39;10.65;;;5.22;;
41711;SDS011;27399;51.516;13.670;2023-06-10T11:01:12;10.88;;;4.40;;
41711;SDS011;27399;51.516;13.670;2023-06-10T11:03:43;8.63;;;4.13;;
41711;SDS011;27399;51.516;13.670;2023-06-10T11:06:12;8.05;;;5.13;;
41711;SDS011;27399;51.516;13.670;2023-06-10T11:11:21;9.15;;;4.45;;
41711;SDS011;27399;51.516;13.670;2023-06-10T11:16:38;7.95;;;4.50;;
41711;SDS011;27399;51.516;13.670;2023-06-10T11:19:06;9.52;;;4.60;;
41711;SDS011;27399;51.516;13.670;2023-06-10T11:21:31;7.72;;;4.07;;
41711;SDS011;27399;51.516;13.670;2023-06-10T11:24:00;6.97;;;4.18;;
41711;SDS011;27399;51.516;13.670;2023-06-10T11:29:08;10.55;;;4.57;;
41711;SDS011;27399;51.516;13.670;2023-06-10T11:31:38;16.58;;;4.82;;
41711;SDS011;27399;51.516;13.670;2023-06-10T11:34:06;5.68;;;4.10;;
41711;SDS011;27399;51.516;13.670;2023-06-10T11:36:33;7.32;;;4.78;;
41711;SDS011;27399;51.516;13.670;2023-06-10T11:39:05;5.38;;;3.67;;
41711;SDS011;27399;51.516;13.670;2023-06-10T11:41:32;9.82;;;3.90;;
41711;SDS011;27399;51.516;13.670;2023-06-10T11:44:02;7.35;;;3.97;;
41711;SDS011;27399;51.516;13.670;2023-06-10T11:46:29;7.80;;;4.15;;
41711;SDS011;27399;51.516;13.670;2023-06-10T11:48:55;8.82;;;4.68;;
41711;SDS011;27399;51.516;13.670;2023-06-10T11:51:24;7.60;;;4.43;;
41711;SDS011;27399;51.516;13.670;2023-06-10T11:53:52;10.77;;;3.85;;
41711;SDS011;27399;51.516;13.670;2023-06-10T11:56:27;9.65;;;4.78;;
41711;SDS011;27399;51.516;13.670;2023-06-10T11:59:01;6.93;;;4.38;;
41711;SDS011;27399;51.516;13.670;2023-06-10T12:01:35;9.35;;;4.43;;
41711;SDS011;27399;51.516;13.670;2023-06-10T12:04:03;35.60;;;5.22;;
41711;SDS011;27399;51.516;13.670;2023-06-10T12:06:46;10.20;;;4.28;;
41711;SDS011;27399;51.516;13.670;2023-06-10T12:09:22;6.88;;;3.58;;
41711;SDS011;27399;51.516;13.670;2023-06-10T12:11:52;3.63;;;3.28;;
41711;SDS011;27399;51.516;13.670;2023-06-10T12:17:23;7.97;;;3.35;;
41711;SDS011;27399;51.516;13.670;2023-06-10T12:20:05;4.97;;;3.70;;
41711;SDS011;27399;51.516;13.670;2023-06-10T12:22:39;9.13;;;3.80;;
41711;SDS011;27399;51.516;13.670;2023-06-10T12:25:06;9.80;;;4.13;;
41711;SDS011;27399;51.516;13.670;2023-06-10T12:27:33;6.18;;;3.75;;
41711;SDS011;27399;51.516;13.670;2023-06-10T12:30:00;6.18;;;3.55;;
41711;SDS011;27399;51.516;13.670;2023-06-10T12:32:43;5.28;;;3.50;;
41711;SDS011;27399;51.516;13.670;2023-06-10T12:35:11;7.10;;;3.92;;
41711;SDS011;27399;51.516;13.670;2023-06-10T12:37:38;7.28;;;3.97;;
41711;SDS011;27399;51.516;13.670;2023-06-10T12:40:04;6.82;;;3.83;;
41711;SDS011;27399;51.516;13.670;2023-06-10T12:42:37;8.35;;;3.78;;
41711;SDS011;27399;51.516;13.670;2023-06-10T12:45:03;6.10;;;3.67;;
41711;SDS011;27399;51.516;13.670;2023-06-10T12:47:32;12.63;;;4.57;;
41711;SDS011;27399;51.516;13.670;2023-06-10T12:50:04;6.93;;;3.72;;
41711;SDS011;27399;51.516;13.670;2023-06-10T12:52:31;6.38;;;3.45;;
41711;SDS011;27399;51.516;13.670;2023-06-10T12:54:57;6.85;;;3.67;;
41711;SDS011;27399;51.516;13.670;2023-06-10T12:57:23;7.40;;;3.40;;
41711;SDS011;27399;51.516;13.670;2023-06-10T12:59:49;4.70;;;3.78;;
41711;SDS011;27399;51.516;13.670;2023-06-10T13:02:18;10.15;;;3.88;;
41711;SDS011;27399;51.516;13.670;2023-06-10T13:04:49;8.98;;;3.60;;
41711;SDS011;27399;51.516;13.670;2023-06-10T13:07:15;7.68;;;3.85;;
41711;SDS011;27399;51.516;13.670;2023-06-10T13:09:41;8.02;;;3.75;;
41711;SDS011;27399;51.516;13.670;2023-06-10T13:12:07;6.15;;;3.67;;
41711;SDS011;27399;51.516;13.670;2023-06-10T13:14:33;8.07;;;4.03;;
41711;SDS011;27399;51.516;13.670;2023-06-10T13:16:59;6.82;;;4.00;;
41711;SDS011;27399;51.516;13.670;2023-06-10T13:19:25;5.70;;;3.80;;
41711;SDS011;27399;51.516;13.670;2023-06-10T13:21:51;6.88;;;3.70;;
41711;SDS011;27399;51.516;13.670;2023-06-10T13:24:17;9.23;;;3.78;;
41711;SDS011;27399;51.516;13.670;2023-06-10T13:26:43;9.27;;;3.90;;
41711;SDS011;27399;51.516;13.670;2023-06-10T13:29:08;7.07;;;3.75;;
41711;SDS011;27399;51.516;13.670;2023-06-10T13:31:39;8.48;;;3.67;;
41711;SDS011;27399;51.516;13.670;2023-06-10T13:34:05;7.18;;;3.65;;
41711;SDS011;27399;51.516;13.670;2023-06-10T13:36:31;6.93;;;3.97;;
41711;SDS011;27399;51.516;13.670;2023-06-10T13:38:57;6.32;;;3.97;;
41711;SDS011;27399;51.516;13.670;2023-06-10T13:41:23;8.88;;;3.78;;
41711;SDS011;27399;51.516;13.670;2023-06-10T13:43:49;6.88;;;3.70;;
41711;SDS011;27399;51.516;13.670;2023-06-10T13:46:15;10.35;;;4.57;;
41711;SDS011;27399;51.516;13.670;2023-06-10T13:48:40;8.55;;;3.67;;
41711;SDS011;27399;51.516;13.670;2023-06-10T13:51:06;8.52;;;4.15;;
41711;SDS011;27399;51.516;13.670;2023-06-10T13:53:34;6.88;;;4.05;;
41711;SDS011;27399;51.516;13.670;2023-06-10T13:56:00;13.88;;;3.92;;
41711;SDS011;27399;51.516;13.670;2023-06-10T13:58:25;6.88;;;3.58;;
41711;SDS011;27399;51.516;13.670;2023-06-10T14:00:51;9.85;;;4.07;;
41711;SDS011;27399;51.516;13.670;2023-06-10T14:03:17;10.73;;;4.53;;
41711;SDS011;27399;51.516;13.670;2023-06-10T14:05:43;9.70;;;4.20;;
41711;SDS011;27399;51.516;13.670;2023-06-10T14:08:08;8.60;;;4.13;;
41711;SDS011;27399;51.516;13.670;2023-06-10T14:10:34;12.27;;;4.47;;
41711;SDS011;27399;51.516;13.670;2023-06-10T14:12:59;10.23;;;4.07;;
41711;SDS011;27399;51.516;13.670;2023-06-10T14:15:25;10.68;;;4.72;;
41711;SDS011;27399;51.516;13.670;2023-06-10T14:17:51;13.07;;;4.38;;
41711;SDS011;27399;51.516;13.670;2023-06-10T14:20:17;8.93;;;4.35;;
41711;SDS011;27399;51.516;13.670;2023-06-10T14:22:42;8.32;;;4.10;;
41711;SDS011;27399;51.516;13.670;2023-06-10T14:25:08;11.63;;;4.68;;
41711;SDS011;27399;51.516;13.670;2023-06-10T14:27:34;7.47;;;4.30;;
41711;SDS011;27399;51.516;13.670;2023-06-10T14:29:59;5.68;;;4.20;;
41711;SDS011;27399;51.516;13.670;2023-06-10T14:32:25;6.15;;;4.28;;
41711;SDS011;27399;51.516;13.670;2023-06-10T14:34:51;11.50;;;4.47;;
41711;SDS011;27399;51.516;13.670;2023-06-10T14:37:16;8.80;;;4.53;;
41711;SDS011;27399;51.516;13.670;2023-06-10T14:39:42;11.32;;;4.47;;
41711;SDS011;27399;51.516;13.670;2023-06-10T14:42:08;15.20;;;4.65;;
41711;SDS011;27399;51.516;13.670;2023-06-10T14:44:34;12.20;;;4.38;;
41711;SDS011;27399;51.516;13.670;2023-06-10T14:46:59;11.82;;;4.88;;
41711;SDS011;27399;51.516;13.670;2023-06-10T14:49:25;14.55;;;4.35;;